sensor_id;sensor_type;location;lat;lon;timestamp;P1;durP1;ratioP1;P2;durP2;ratioP2
75810;SDS011;64449;50.016;19.954;2023-02-26T00:04:46;7.60;;;4.50;;
75810;SDS011;64449;50.016;19.954;2023-02-26T00:09:37;7.00;;;4.00;;
75810;SDS011;64449;50.016;19.954;2023-02-26T00:14:28;7.60;;;4.10;;
75810;SDS011;64449;50.016;19.954;2023-02-26T00:17:19;8.60;;;3.50;;
75810;SDS011;64449;50.016;19.954;2023-02-26T00:19:45;4.60;;;2.50;;
75810;SDS011;64449;50.016;19.954;2023-02-26T00:22:10;6.80;;;3.30;;
75810;SDS011;64449;50.016;19.954;2023-02-26T00:24:36;5.60;;;2.80;;
75810;SDS011;64449;50.016;19.954;2023-02-26T00:29:27;5.60;;;2.50;;
75810;SDS011;64449;50.016;19.954;2023-02-26T00:31:52;4.50;;;2.50;;
75810;SDS011;64449;50.016;19.954;2023-02-26T00:34:18;4.30;;;2.10;;
75810;SDS011;64449;50.016;19.954;2023-02-26T00:36:46;5.10;;;2.60;;
75810;SDS011;64449;50.016;19.954;2023-02-26T00:42:15;4.20;;;2.40;;
75810;SDS011;64449;50.016;19.954;2023-02-26T00:44:41;5.60;;;3.00;;
75810;SDS011;64449;50.016;19.954;2023-02-26T00:52:27;4.00;;;2.30;;
75810;SDS011;64449;50.016;19.954;2023-02-26T00:55:16;3.70;;;1.90;;
75810;SDS011;64449;50.016;19.954;2023-02-26T00:57:41;4.70;;;1.90;;
75810;SDS011;64449;50.016;19.954;2023-02-26T01:02:33;5.20;;;2.70;;
75810;SDS011;64449;50.016;19.954;2023-02-26T01:05:00;5.20;;;2.90;;
75810;SDS011;64449;50.016;19.954;2023-02-26T01:07:26;7.60;;;3.40;;
75810;SDS011;64449;50.016;19.954;2023-02-26T01:09:53;6.00;;;3.00;;
75810;SDS011;64449;50.016;19.954;2023-02-26T01:12:19;7.30;;;3.90;;
75810;SDS011;64449;50.016;19.954;2023-02-26T01:14:44;7.40;;;3.90;;
75810;SDS011;64449;50.016;19.954;2023-02-26T01:17:22;8.60;;;4.40;;
75810;SDS011;64449;50.016;19.954;2023-02-26T01:22:36;9.60;;;4.40;;
75810;SDS011;64449;50.016;19.954;2023-02-26T01:27:31;6.70;;;3.90;;
75810;SDS011;64449;50.016;19.954;2023-02-26T01:29:57;6.00;;;3.60;;
75810;SDS011;64449;50.016;19.954;2023-02-26T01:43:38;6.60;;;2.80;;
75810;SDS011;64449;50.016;19.954;2023-02-26T01:49:14;6.10;;;2.90;;
75810;SDS011;64449;50.016;19.954;2023-02-26T01:51:45;4.70;;;2.60;;
75810;SDS011;64449;50.016;19.954;2023-02-26T01:54:13;5.10;;;2.60;;
75810;SDS011;64449;50.016;19.954;2023-02-26T01:56:40;5.40;;;2.50;;
75810;SDS011;64449;50.016;19.954;2023-02-26T01:59:07;5.60;;;3.20;;
75810;SDS011;64449;50.016;19.954;2023-02-26T02:01:35;6.60;;;3.20;;
75810;SDS011;64449;50.016;19.954;2023-02-26T02:04:03;5.30;;;3.10;;
75810;SDS011;64449;50.016;19.954;2023-02-26T02:06:32;5.30;;;2.80;;
75810;SDS011;64449;50.016;19.954;2023-02-26T02:11:23;5.90;;;2.20;;
75810;SDS011;64449;50.016;19.954;2023-02-26T02:24:38;6.00;;;2.90;;
75810;SDS011;64449;50.016;19.954;2023-02-26T02:27:36;5.90;;;3.00;;
75810;SDS011;64449;50.016;19.954;2023-02-26T02:33:01;5.50;;;2.50;;
75810;SDS011;64449;50.016;19.954;2023-02-26T02:38:10;4.20;;;2.20;;
75810;SDS011;64449;50.016;19.954;2023-02-26T02:40:41;7.20;;;3.10;;
75810;SDS011;64449;50.016;19.954;2023-02-26T02:43:14;6.60;;;3.20;;
75810;SDS011;64449;50.016;19.954;2023-02-26T02:45:41;5.20;;;2.50;;
75810;SDS011;64449;50.016;19.954;2023-02-26T02:48:20;10.10;;;4.80;;
75810;SDS011;64449;50.016;19.954;2023-02-26T02:50:57;4.80;;;2.60;;
75810;SDS011;64449;50.016;19.954;2023-02-26T02:53:27;5.40;;;2.60;;
75810;SDS011;64449;50.016;19.954;2023-02-26T02:56:06;5.40;;;2.90;;
75810;SDS011;64449;50.016;19.954;2023-02-26T02:58:36;4.90;;;2.80;;
75810;SDS011;64449;50.016;19.954;2023-02-26T03:01:09;4.80;;;2.80;;
75810;SDS011;64449;50.016;19.954;2023-02-26T03:06:09;4.90;;;3.00;;
75810;SDS011;64449;50.016;19.954;2023-02-26T03:08:36;6.90;;;4.10;;
75810;SDS011;64449;50.016;19.954;2023-02-26T03:11:05;6.50;;;3.80;;
75810;SDS011;64449;50.016;19.954;2023-02-26T03:13:32;5.10;;;2.70;;
75810;SDS011;64449;50.016;19.954;2023-02-26T03:21:57;6.40;;;3.20;;
75810;SDS011;64449;50.016;19.954;2023-02-26T03:27:34;5.40;;;2.90;;
75810;SDS011;64449;50.016;19.954;2023-02-26T03:35:34;4.50;;;2.40;;
75810;SDS011;64449;50.016;19.954;2023-02-26T03:38:07;4.70;;;1.80;;
75810;SDS011;64449;50.016;19.954;2023-02-26T03:40:45;3.70;;;1.80;;
75810;SDS011;64449;50.016;19.954;2023-02-26T03:43:23;4.50;;;1.90;;
75810;SDS011;64449;50.016;19.954;2023-02-26T03:46:10;6.00;;;2.40;;
75810;SDS011;64449;50.016;19.954;2023-02-26T03:48:42;4.00;;;1.90;;
75810;SDS011;64449;50.016;19.954;2023-02-26T03:51:11;4.20;;;2.20;;
75810;SDS011;64449;50.016;19.954;2023-02-26T03:53:46;2.50;;;1.40;;
75810;SDS011;64449;50.016;19.954;2023-02-26T03:56:38;3.40;;;1.90;;
75810;SDS011;64449;50.016;19.954;2023-02-26T03:59:06;4.90;;;2.30;;
75810;SDS011;64449;50.016;19.954;2023-02-26T04:01:47;4.50;;;2.00;;
75810;SDS011;64449;50.016;19.954;2023-02-26T04:06:54;4.30;;;1.70;;
75810;SDS011;64449;50.016;19.954;2023-02-26T04:09:20;3.30;;;1.60;;
75810;SDS011;64449;50.016;19.954;2023-02-26T04:11:47;4.30;;;1.60;;
75810;SDS011;64449;50.016;19.954;2023-02-26T04:14:14;4.60;;;1.80;;
75810;SDS011;64449;50.016;19.954;2023-02-26T04:16:40;3.10;;;1.50;;
75810;SDS011;64449;50.016;19.954;2023-02-26T04:19:06;3.00;;;1.30;;
75810;SDS011;64449;50.016;19.954;2023-02-26T04:23:57;4.10;;;1.20;;
75810;SDS011;64449;50.016;19.954;2023-02-26T04:28:48;2.90;;;1.40;;
75810;SDS011;64449;50.016;19.954;2023-02-26T04:33:39;2.90;;;1.30;;
75810;SDS011;64449;50.016;19.954;2023-02-26T04:36:05;4.40;;;1.90;;
75810;SDS011;64449;50.016;19.954;2023-02-26T04:38:30;3.30;;;1.20;;
75810;SDS011;64449;50.016;19.954;2023-02-26T04:40:56;2.50;;;1.20;;
75810;SDS011;64449;50.016;19.954;2023-02-26T04:43:22;3.90;;;1.50;;
75810;SDS011;64449;50.016;19.954;2023-02-26T04:45:47;2.90;;;1.40;;
75810;SDS011;64449;50.016;19.954;2023-02-26T04:48:13;2.70;;;1.50;;
75810;SDS011;64449;50.016;19.954;2023-02-26T04:50:40;2.90;;;1.30;;
75810;SDS011;64449;50.016;19.954;2023-02-26T04:53:06;3.00;;;1.30;;
75810;SDS011;64449;50.016;19.954;2023-02-26T04:55:32;3.50;;;2.00;;
75810;SDS011;64449;50.016;19.954;2023-02-26T04:57:58;3.50;;;1.90;;
75810;SDS011;64449;50.016;19.954;2023-02-26T05:00:24;3.00;;;1.40;;
75810;SDS011;64449;50.016;19.954;2023-02-26T05:02:50;3.30;;;1.80;;
75810;SDS011;64449;50.016;19.954;2023-02-26T05:05:15;3.00;;;1.50;;
75810;SDS011;64449;50.016;19.954;2023-02-26T05:07:41;5.00;;;1.40;;
75810;SDS011;64449;50.016;19.954;2023-02-26T05:12:31;2.30;;;1.20;;
75810;SDS011;64449;50.016;19.954;2023-02-26T05:14:57;4.10;;;1.40;;
75810;SDS011;64449;50.016;19.954;2023-02-26T05:17:23;2.40;;;1.50;;
75810;SDS011;64449;50.016;19.954;2023-02-26T05:19:49;3.60;;;1.50;;
75810;SDS011;64449;50.016;19.954;2023-02-26T05:24:39;2.40;;;1.20;;
75810;SDS011;64449;50.016;19.954;2023-02-26T05:27:05;7.30;;;1.40;;
75810;SDS011;64449;50.016;19.954;2023-02-26T05:29:30;3.70;;;1.00;;
75810;SDS011;64449;50.016;19.954;2023-02-26T05:34:21;2.20;;;1.00;;
75810;SDS011;64449;50.016;19.954;2023-02-26T05:39:12;2.00;;;1.00;;
75810;SDS011;64449;50.016;19.954;2023-02-26T05:41:37;3.90;;;1.40;;
75810;SDS011;64449;50.016;19.954;2023-02-26T05:44:02;2.40;;;1.10;;
75810;SDS011;64449;50.016;19.954;2023-02-26T05:48:53;2.40;;;1.20;;
75810;SDS011;64449;50.016;19.954;2023-02-26T05:51:18;2.60;;;1.30;;
75810;SDS011;64449;50.016;19.954;2023-02-26T05:53:44;2.90;;;1.10;;
75810;SDS011;64449;50.016;19.954;2023-02-26T05:56:10;3.30;;;1.10;;
75810;SDS011;64449;50.016;19.954;2023-02-26T05:58:36;3.10;;;1.00;;
75810;SDS011;64449;50.016;19.954;2023-02-26T06:01:01;2.80;;;1.00;;
75810;SDS011;64449;50.016;19.954;2023-02-26T06:05:52;3.30;;;1.20;;
75810;SDS011;64449;50.016;19.954;2023-02-26T06:08:17;2.60;;;0.90;;
75810;SDS011;64449;50.016;19.954;2023-02-26T06:13:08;3.30;;;1.50;;
75810;SDS011;64449;50.016;19.954;2023-02-26T06:15:33;1.60;;;0.80;;
75810;SDS011;64449;50.016;19.954;2023-02-26T06:17:59;2.60;;;1.20;;
75810;SDS011;64449;50.016;19.954;2023-02-26T06:22:50;1.60;;;0.90;;
75810;SDS011;64449;50.016;19.954;2023-02-26T06:25:15;2.70;;;1.00;;
75810;SDS011;64449;50.016;19.954;2023-02-26T06:30:06;4.70;;;1.10;;
75810;SDS011;64449;50.016;19.954;2023-02-26T06:32:32;3.60;;;1.50;;
75810;SDS011;64449;50.016;19.954;2023-02-26T06:34:57;3.70;;;1.60;;
75810;SDS011;64449;50.016;19.954;2023-02-26T06:39:48;5.20;;;2.00;;
75810;SDS011;64449;50.016;19.954;2023-02-26T06:42:14;4.30;;;1.30;;
75810;SDS011;64449;50.016;19.954;2023-02-26T06:47:04;3.00;;;1.20;;
75810;SDS011;64449;50.016;19.954;2023-02-26T06:49:30;4.90;;;1.90;;
75810;SDS011;64449;50.016;19.954;2023-02-26T06:54:21;3.00;;;1.90;;
75810;SDS011;64449;50.016;19.954;2023-02-26T06:56:46;5.90;;;2.30;;
75810;SDS011;64449;50.016;19.954;2023-02-26T07:01:39;5.30;;;2.10;;
75810;SDS011;64449;50.016;19.954;2023-02-26T07:06:29;6.40;;;1.70;;
75810;SDS011;64449;50.016;19.954;2023-02-26T07:11:20;4.90;;;1.70;;
75810;SDS011;64449;50.016;19.954;2023-02-26T07:13:45;3.20;;;1.70;;
75810;SDS011;64449;50.016;19.954;2023-02-26T07:16:11;4.50;;;1.60;;
75810;SDS011;64449;50.016;19.954;2023-02-26T07:18:36;3.80;;;1.70;;
75810;SDS011;64449;50.016;19.954;2023-02-26T07:21:02;4.40;;;1.80;;
75810;SDS011;64449;50.016;19.954;2023-02-26T07:23:28;3.40;;;1.50;;
75810;SDS011;64449;50.016;19.954;2023-02-26T07:25:54;3.90;;;1.80;;
75810;SDS011;64449;50.016;19.954;2023-02-26T07:28:20;3.00;;;1.20;;
75810;SDS011;64449;50.016;19.954;2023-02-26T07:30:46;3.50;;;1.40;;
75810;SDS011;64449;50.016;19.954;2023-02-26T07:33:11;3.60;;;1.40;;
75810;SDS011;64449;50.016;19.954;2023-02-26T07:35:37;4.00;;;1.70;;
75810;SDS011;64449;50.016;19.954;2023-02-26T07:38:03;3.60;;;1.80;;
75810;SDS011;64449;50.016;19.954;2023-02-26T07:40:29;3.90;;;1.90;;
75810;SDS011;64449;50.016;19.954;2023-02-26T07:42:54;3.10;;;1.70;;
75810;SDS011;64449;50.016;19.954;2023-02-26T07:45:20;3.20;;;1.90;;
75810;SDS011;64449;50.016;19.954;2023-02-26T07:47:49;4.30;;;2.10;;
75810;SDS011;64449;50.016;19.954;2023-02-26T07:50:16;2.80;;;1.30;;
75810;SDS011;64449;50.016;19.954;2023-02-26T07:52:51;3.40;;;1.50;;
75810;SDS011;64449;50.016;19.954;2023-02-26T07:55:17;3.90;;;1.60;;
75810;SDS011;64449;50.016;19.954;2023-02-26T08:03:18;2.40;;;1.30;;
75810;SDS011;64449;50.016;19.954;2023-02-26T08:05:44;4.70;;;2.10;;
75810;SDS011;64449;50.016;19.954;2023-02-26T08:08:09;3.10;;;1.10;;
75810;SDS011;64449;50.016;19.954;2023-02-26T08:10:35;2.90;;;1.00;;
75810;SDS011;64449;50.016;19.954;2023-02-26T08:13:01;3.10;;;1.30;;
75810;SDS011;64449;50.016;19.954;2023-02-26T08:15:26;2.30;;;1.00;;
75810;SDS011;64449;50.016;19.954;2023-02-26T08:17:52;2.20;;;1.00;;
75810;SDS011;64449;50.016;19.954;2023-02-26T08:20:18;3.90;;;1.40;;
75810;SDS011;64449;50.016;19.954;2023-02-26T08:22:43;2.90;;;1.40;;
75810;SDS011;64449;50.016;19.954;2023-02-26T08:25:09;3.20;;;1.20;;
75810;SDS011;64449;50.016;19.954;2023-02-26T08:27:34;3.90;;;1.10;;
75810;SDS011;64449;50.016;19.954;2023-02-26T08:32:48;2.60;;;0.90;;
75810;SDS011;64449;50.016;19.954;2023-02-26T08:35:13;2.50;;;1.00;;
75810;SDS011;64449;50.016;19.954;2023-02-26T08:37:39;2.20;;;0.90;;
75810;SDS011;64449;50.016;19.954;2023-02-26T08:40:05;2.90;;;1.00;;
75810;SDS011;64449;50.016;19.954;2023-02-26T08:48:08;3.30;;;1.20;;
75810;SDS011;64449;50.016;19.954;2023-02-26T08:50:49;4.00;;;1.40;;
75810;SDS011;64449;50.016;19.954;2023-02-26T08:53:15;3.20;;;1.40;;
75810;SDS011;64449;50.016;19.954;2023-02-26T08:55:40;3.40;;;1.20;;
75810;SDS011;64449;50.016;19.954;2023-02-26T08:58:08;3.50;;;1.20;;
75810;SDS011;64449;50.016;19.954;2023-02-26T09:00:33;3.40;;;1.50;;
75810;SDS011;64449;50.016;19.954;2023-02-26T09:02:58;2.40;;;1.10;;
75810;SDS011;64449;50.016;19.954;2023-02-26T09:05:24;3.10;;;1.20;;
75810;SDS011;64449;50.016;19.954;2023-02-26T09:07:49;3.30;;;1.10;;
75810;SDS011;64449;50.016;19.954;2023-02-26T09:10:15;3.30;;;1.10;;
75810;SDS011;64449;50.016;19.954;2023-02-26T09:12:41;3.10;;;1.10;;
75810;SDS011;64449;50.016;19.954;2023-02-26T09:15:06;2.10;;;0.80;;
75810;SDS011;64449;50.016;19.954;2023-02-26T09:17:33;2.20;;;1.20;;
75810;SDS011;64449;50.016;19.954;2023-02-26T09:19:59;3.20;;;1.10;;
75810;SDS011;64449;50.016;19.954;2023-02-26T09:22:25;2.60;;;1.10;;
75810;SDS011;64449;50.016;19.954;2023-02-26T09:24:50;4.40;;;1.50;;
75810;SDS011;64449;50.016;19.954;2023-02-26T09:27:16;2.90;;;1.20;;
75810;SDS011;64449;50.016;19.954;2023-02-26T09:29:42;3.70;;;1.20;;
75810;SDS011;64449;50.016;19.954;2023-02-26T09:32:08;3.30;;;1.30;;
75810;SDS011;64449;50.016;19.954;2023-02-26T09:34:34;6.60;;;1.60;;
75810;SDS011;64449;50.016;19.954;2023-02-26T09:37:00;2.90;;;1.10;;
75810;SDS011;64449;50.016;19.954;2023-02-26T09:39:26;3.20;;;1.30;;
75810;SDS011;64449;50.016;19.954;2023-02-26T09:41:53;3.20;;;1.50;;
75810;SDS011;64449;50.016;19.954;2023-02-26T09:46:58;4.30;;;1.30;;
75810;SDS011;64449;50.016;19.954;2023-02-26T09:54:56;3.10;;;1.20;;
75810;SDS011;64449;50.016;19.954;2023-02-26T09:57:30;6.80;;;1.40;;
75810;SDS011;64449;50.016;19.954;2023-02-26T09:59:58;3.00;;;1.00;;
75810;SDS011;64449;50.016;19.954;2023-02-26T10:10:23;4.60;;;1.70;;
75810;SDS011;64449;50.016;19.954;2023-02-26T10:12:59;2.40;;;1.30;;
75810;SDS011;64449;50.016;19.954;2023-02-26T10:15:26;3.50;;;1.40;;
75810;SDS011;64449;50.016;19.954;2023-02-26T10:31:48;2.10;;;0.80;;
75810;SDS011;64449;50.016;19.954;2023-02-26T10:34:19;1.50;;;0.90;;
75810;SDS011;64449;50.016;19.954;2023-02-26T10:39:45;1.70;;;0.70;;
75810;SDS011;64449;50.016;19.954;2023-02-26T10:42:14;1.80;;;0.80;;
75810;SDS011;64449;50.016;19.954;2023-02-26T10:47:39;3.30;;;1.10;;
75810;SDS011;64449;50.016;19.954;2023-02-26T10:50:12;2.10;;;0.80;;
75810;SDS011;64449;50.016;19.954;2023-02-26T10:52:41;2.20;;;1.10;;
75810;SDS011;64449;50.016;19.954;2023-02-26T11:00:28;2.90;;;0.90;;
75810;SDS011;64449;50.016;19.954;2023-02-26T11:02:53;4.10;;;1.00;;
75810;SDS011;64449;50.016;19.954;2023-02-26T11:05:25;2.90;;;1.00;;
75810;SDS011;64449;50.016;19.954;2023-02-26T11:08:39;3.00;;;1.10;;
75810;SDS011;64449;50.016;19.954;2023-02-26T11:11:00;1.90;;;0.90;;
75810;SDS011;64449;50.016;19.954;2023-02-26T11:13:29;1.60;;;0.60;;
75810;SDS011;64449;50.016;19.954;2023-02-26T11:16:00;3.00;;;1.00;;
75810;SDS011;64449;50.016;19.954;2023-02-26T11:18:30;3.30;;;0.90;;
75810;SDS011;64449;50.016;19.954;2023-02-26T11:21:02;3.10;;;1.20;;
75810;SDS011;64449;50.016;19.954;2023-02-26T11:26:17;2.30;;;1.20;;
75810;SDS011;64449;50.016;19.954;2023-02-26T11:28:45;2.60;;;0.80;;
75810;SDS011;64449;50.016;19.954;2023-02-26T11:31:14;2.30;;;1.00;;
75810;SDS011;64449;50.016;19.954;2023-02-26T11:33:43;1.70;;;0.90;;
75810;SDS011;64449;50.016;19.954;2023-02-26T11:36:13;2.00;;;1.00;;
75810;SDS011;64449;50.016;19.954;2023-02-26T11:38:54;3.60;;;1.40;;
75810;SDS011;64449;50.016;19.954;2023-02-26T11:41:22;2.80;;;1.60;;
75810;SDS011;64449;50.016;19.954;2023-02-26T11:43:55;4.30;;;1.40;;
75810;SDS011;64449;50.016;19.954;2023-02-26T11:46:24;3.20;;;1.50;;
75810;SDS011;64449;50.016;19.954;2023-02-26T11:48:51;2.50;;;1.30;;
75810;SDS011;64449;50.016;19.954;2023-02-26T11:51:19;2.20;;;1.10;;
75810;SDS011;64449;50.016;19.954;2023-02-26T11:53:50;3.10;;;1.10;;
75810;SDS011;64449;50.016;19.954;2023-02-26T11:56:25;3.90;;;1.80;;
75810;SDS011;64449;50.016;19.954;2023-02-26T11:58:54;2.30;;;1.10;;
75810;SDS011;64449;50.016;19.954;2023-02-26T12:01:25;2.80;;;1.30;;
75810;SDS011;64449;50.016;19.954;2023-02-26T12:03:54;2.80;;;1.30;;
75810;SDS011;64449;50.016;19.954;2023-02-26T12:06:23;3.10;;;1.30;;
75810;SDS011;64449;50.016;19.954;2023-02-26T12:08:49;2.60;;;1.10;;
75810;SDS011;64449;50.016;19.954;2023-02-26T14:23:49;4.00;;;1.90;;
75810;SDS011;64449;50.016;19.954;2023-02-26T14:26:20;3.50;;;1.50;;
75810;SDS011;64449;50.016;19.954;2023-02-26T14:29:15;3.40;;;1.90;;
75810;SDS011;64449;50.016;19.954;2023-02-26T14:32:03;3.40;;;1.60;;
75810;SDS011;64449;50.016;19.954;2023-02-26T14:39:54;3.20;;;1.60;;
75810;SDS011;64449;50.016;19.954;2023-02-26T14:42:56;4.00;;;1.70;;
75810;SDS011;64449;50.016;19.954;2023-02-26T14:47:58;5.00;;;1.60;;
75810;SDS011;64449;50.016;19.954;2023-02-26T14:50:30;3.10;;;1.40;;
75810;SDS011;64449;50.016;19.954;2023-02-26T14:58:51;4.10;;;1.70;;
75810;SDS011;64449;50.016;19.954;2023-02-26T15:18:28;4.20;;;1.80;;
75810;SDS011;64449;50.016;19.954;2023-02-26T15:23:47;4.30;;;1.80;;
75810;SDS011;64449;50.016;19.954;2023-02-26T15:26:24;4.00;;;1.70;;
75810;SDS011;64449;50.016;19.954;2023-02-26T15:28:54;4.40;;;2.00;;
75810;SDS011;64449;50.016;19.954;2023-02-26T15:31:26;3.50;;;1.50;;
75810;SDS011;64449;50.016;19.954;2023-02-26T15:33:57;3.70;;;2.00;;
75810;SDS011;64449;50.016;19.954;2023-02-26T15:36:23;4.80;;;2.10;;
75810;SDS011;64449;50.016;19.954;2023-02-26T15:38:57;6.30;;;2.10;;
75810;SDS011;64449;50.016;19.954;2023-02-26T15:41:24;3.60;;;1.90;;
75810;SDS011;64449;50.016;19.954;2023-02-26T15:44:02;4.20;;;1.90;;
75810;SDS011;64449;50.016;19.954;2023-02-26T15:46:33;4.20;;;1.70;;
75810;SDS011;64449;50.016;19.954;2023-02-26T15:49:06;3.60;;;1.60;;
75810;SDS011;64449;50.016;19.954;2023-02-26T15:51:35;3.50;;;1.70;;
75810;SDS011;64449;50.016;19.954;2023-02-26T15:54:02;4.30;;;2.00;;
75810;SDS011;64449;50.016;19.954;2023-02-26T15:56:33;4.20;;;1.70;;
75810;SDS011;64449;50.016;19.954;2023-02-26T15:59:02;5.10;;;2.00;;
75810;SDS011;64449;50.016;19.954;2023-02-26T16:01:31;3.80;;;1.90;;
75810;SDS011;64449;50.016;19.954;2023-02-26T16:03:58;5.30;;;1.90;;
75810;SDS011;64449;50.016;19.954;2023-02-26T16:06:30;3.10;;;1.40;;
75810;SDS011;64449;50.016;19.954;2023-02-26T16:08:58;4.70;;;2.00;;
75810;SDS011;64449;50.016;19.954;2023-02-26T16:11:25;4.00;;;2.00;;
75810;SDS011;64449;50.016;19.954;2023-02-26T16:13:55;4.40;;;1.40;;
75810;SDS011;64449;50.016;19.954;2023-02-26T16:16:23;4.40;;;1.90;;
75810;SDS011;64449;50.016;19.954;2023-02-26T16:18:51;5.30;;;2.00;;
75810;SDS011;64449;50.016;19.954;2023-02-26T16:21:23;5.60;;;2.30;;
75810;SDS011;64449;50.016;19.954;2023-02-26T16:26:41;4.20;;;2.10;;
75810;SDS011;64449;50.016;19.954;2023-02-26T16:29:12;4.90;;;2.00;;
75810;SDS011;64449;50.016;19.954;2023-02-26T16:31:40;5.00;;;2.20;;
75810;SDS011;64449;50.016;19.954;2023-02-26T16:34:54;6.00;;;2.50;;
75810;SDS011;64449;50.016;19.954;2023-02-26T16:51:00;4.50;;;2.10;;
75810;SDS011;64449;50.016;19.954;2023-02-26T16:56:14;4.50;;;2.40;;
75810;SDS011;64449;50.016;19.954;2023-02-26T16:58:45;4.10;;;2.00;;
75810;SDS011;64449;50.016;19.954;2023-02-26T17:01:16;4.30;;;2.20;;
75810;SDS011;64449;50.016;19.954;2023-02-26T17:03:47;5.60;;;2.30;;
75810;SDS011;64449;50.016;19.954;2023-02-26T17:06:19;4.80;;;2.50;;
75810;SDS011;64449;50.016;19.954;2023-02-26T17:08:50;4.60;;;2.20;;
75810;SDS011;64449;50.016;19.954;2023-02-26T17:11:23;4.70;;;2.30;;
75810;SDS011;64449;50.016;19.954;2023-02-26T17:14:36;6.50;;;2.10;;
75810;SDS011;64449;50.016;19.954;2023-02-26T17:16:43;6.40;;;1.80;;
75810;SDS011;64449;50.016;19.954;2023-02-26T17:19:09;5.80;;;2.70;;
75810;SDS011;64449;50.016;19.954;2023-02-26T17:24:36;5.60;;;2.10;;
75810;SDS011;64449;50.016;19.954;2023-02-26T17:27:09;3.40;;;1.20;;
75810;SDS011;64449;50.016;19.954;2023-02-26T17:29:40;6.20;;;2.00;;
75810;SDS011;64449;50.016;19.954;2023-02-26T17:32:20;5.50;;;2.70;;
75810;SDS011;64449;50.016;19.954;2023-02-26T17:34:48;5.70;;;2.40;;
75810;SDS011;64449;50.016;19.954;2023-02-26T17:37:14;5.10;;;2.30;;
75810;SDS011;64449;50.016;19.954;2023-02-26T17:39:40;5.00;;;2.50;;
75810;SDS011;64449;50.016;19.954;2023-02-26T17:42:10;6.90;;;2.60;;
75810;SDS011;64449;50.016;19.954;2023-02-26T17:44:37;4.20;;;2.00;;
75810;SDS011;64449;50.016;19.954;2023-02-26T17:47:02;4.70;;;2.10;;
75810;SDS011;64449;50.016;19.954;2023-02-26T17:49:27;5.10;;;2.00;;
75810;SDS011;64449;50.016;19.954;2023-02-26T17:51:53;5.50;;;2.10;;
75810;SDS011;64449;50.016;19.954;2023-02-26T17:54:18;5.50;;;2.10;;
75810;SDS011;64449;50.016;19.954;2023-02-26T17:56:44;3.40;;;2.00;;
75810;SDS011;64449;50.016;19.954;2023-02-26T17:59:09;4.70;;;2.30;;
75810;SDS011;64449;50.016;19.954;2023-02-26T18:01:37;5.50;;;3.00;;
75810;SDS011;64449;50.016;19.954;2023-02-26T18:04:03;5.50;;;2.20;;
75810;SDS011;64449;50.016;19.954;2023-02-26T18:06:30;4.90;;;2.40;;
75810;SDS011;64449;50.016;19.954;2023-02-26T18:08:58;4.80;;;2.10;;
75810;SDS011;64449;50.016;19.954;2023-02-26T18:11:24;6.40;;;2.40;;
75810;SDS011;64449;50.016;19.954;2023-02-26T18:13:50;6.20;;;2.60;;
75810;SDS011;64449;50.016;19.954;2023-02-26T18:16:17;6.20;;;2.70;;
75810;SDS011;64449;50.016;19.954;2023-02-26T18:18:44;3.20;;;1.60;;
75810;SDS011;64449;50.016;19.954;2023-02-26T18:21:10;5.40;;;2.20;;
75810;SDS011;64449;50.016;19.954;2023-02-26T18:23:36;5.00;;;2.20;;
75810;SDS011;64449;50.016;19.954;2023-02-26T18:28:49;4.60;;;1.70;;
75810;SDS011;64449;50.016;19.954;2023-02-26T18:31:16;4.70;;;2.10;;
75810;SDS011;64449;50.016;19.954;2023-02-26T18:36:30;5.50;;;3.20;;
75810;SDS011;64449;50.016;19.954;2023-02-26T18:41:48;8.70;;;3.00;;
75810;SDS011;64449;50.016;19.954;2023-02-26T18:46:39;5.00;;;2.30;;
75810;SDS011;64449;50.016;19.954;2023-02-26T18:49:06;4.50;;;2.20;;
75810;SDS011;64449;50.016;19.954;2023-02-26T18:51:37;6.90;;;3.00;;
75810;SDS011;64449;50.016;19.954;2023-02-26T18:56:27;5.00;;;2.00;;
75810;SDS011;64449;50.016;19.954;2023-02-26T19:01:18;4.60;;;2.00;;
75810;SDS011;64449;50.016;19.954;2023-02-26T19:06:09;3.70;;;1.80;;
75810;SDS011;64449;50.016;19.954;2023-02-26T19:11:22;5.60;;;2.10;;
75810;SDS011;64449;50.016;19.954;2023-02-26T19:13:48;5.80;;;2.20;;
75810;SDS011;64449;50.016;19.954;2023-02-26T19:16:14;5.30;;;2.30;;
75810;SDS011;64449;50.016;19.954;2023-02-26T19:21:05;3.00;;;1.20;;
75810;SDS011;64449;50.016;19.954;2023-02-26T19:23:31;5.70;;;2.80;;
75810;SDS011;64449;50.016;19.954;2023-02-26T19:25:56;6.70;;;2.60;;
75810;SDS011;64449;50.016;19.954;2023-02-26T19:30:47;3.00;;;1.80;;
75810;SDS011;64449;50.016;19.954;2023-02-26T19:33:12;7.50;;;2.10;;
75810;SDS011;64449;50.016;19.954;2023-02-26T19:35:38;7.80;;;2.20;;
75810;SDS011;64449;50.016;19.954;2023-02-26T19:38:04;7.10;;;2.90;;
75810;SDS011;64449;50.016;19.954;2023-02-26T19:40:29;5.00;;;2.40;;
75810;SDS011;64449;50.016;19.954;2023-02-26T19:45:20;5.10;;;2.20;;
75810;SDS011;64449;50.016;19.954;2023-02-26T19:47:46;4.60;;;2.00;;
75810;SDS011;64449;50.016;19.954;2023-02-26T19:52:38;7.20;;;2.50;;
75810;SDS011;64449;50.016;19.954;2023-02-26T19:55:05;4.90;;;2.40;;
75810;SDS011;64449;50.016;19.954;2023-02-26T19:57:31;7.30;;;2.60;;
75810;SDS011;64449;50.016;19.954;2023-02-26T19:59:57;7.90;;;3.10;;
75810;SDS011;64449;50.016;19.954;2023-02-26T20:18:25;7.40;;;3.20;;
75810;SDS011;64449;50.016;19.954;2023-02-26T20:21:19;6.50;;;3.00;;
75810;SDS011;64449;50.016;19.954;2023-02-26T20:23:46;5.10;;;2.80;;
75810;SDS011;64449;50.016;19.954;2023-02-26T20:28:39;8.40;;;2.20;;
75810;SDS011;64449;50.016;19.954;2023-02-26T20:31:05;8.40;;;3.00;;
75810;SDS011;64449;50.016;19.954;2023-02-26T20:33:31;6.60;;;2.40;;
75810;SDS011;64449;50.016;19.954;2023-02-26T20:35:57;6.00;;;2.40;;
75810;SDS011;64449;50.016;19.954;2023-02-26T20:38:23;4.70;;;2.40;;
75810;SDS011;64449;50.016;19.954;2023-02-26T20:40:48;6.90;;;2.80;;
75810;SDS011;64449;50.016;19.954;2023-02-26T20:43:14;4.70;;;2.60;;
75810;SDS011;64449;50.016;19.954;2023-02-26T20:48:05;7.90;;;2.30;;
75810;SDS011;64449;50.016;19.954;2023-02-26T20:50:32;5.20;;;2.50;;
75810;SDS011;64449;50.016;19.954;2023-02-26T20:52:59;5.00;;;2.40;;
75810;SDS011;64449;50.016;19.954;2023-02-26T20:55:25;8.10;;;2.70;;
75810;SDS011;64449;50.016;19.954;2023-02-26T20:57:50;4.00;;;2.10;;
75810;SDS011;64449;50.016;19.954;2023-02-26T21:00:16;6.90;;;2.90;;
75810;SDS011;64449;50.016;19.954;2023-02-26T21:02:42;7.20;;;2.60;;
75810;SDS011;64449;50.016;19.954;2023-02-26T21:05:09;5.10;;;2.60;;
75810;SDS011;64449;50.016;19.954;2023-02-26T21:07:35;4.50;;;2.40;;
75810;SDS011;64449;50.016;19.954;2023-02-26T21:10:01;9.20;;;3.40;;
75810;SDS011;64449;50.016;19.954;2023-02-26T21:12:27;6.70;;;2.80;;
75810;SDS011;64449;50.016;19.954;2023-02-26T21:14:53;10.40;;;3.50;;
75810;SDS011;64449;50.016;19.954;2023-02-26T21:17:23;6.90;;;3.30;;
75810;SDS011;64449;50.016;19.954;2023-02-26T21:19:50;7.20;;;2.50;;
75810;SDS011;64449;50.016;19.954;2023-02-26T21:22:17;5.10;;;2.50;;
75810;SDS011;64449;50.016;19.954;2023-02-26T21:24:43;6.60;;;2.50;;
75810;SDS011;64449;50.016;19.954;2023-02-26T21:29:35;5.30;;;2.00;;
75810;SDS011;64449;50.016;19.954;2023-02-26T21:34:28;5.70;;;2.70;;
75810;SDS011;64449;50.016;19.954;2023-02-26T21:36:59;5.80;;;2.20;;
75810;SDS011;64449;50.016;19.954;2023-02-26T21:39:25;5.40;;;2.30;;
75810;SDS011;64449;50.016;19.954;2023-02-26T21:41:51;6.00;;;2.10;;
75810;SDS011;64449;50.016;19.954;2023-02-26T21:46:41;4.60;;;1.80;;
75810;SDS011;64449;50.016;19.954;2023-02-26T21:51:32;4.60;;;1.70;;